createdAt,value
2022-08-20T02:00:47.935Z,20.08
2022-08-20T02:01:08.561Z,20.06
2022-08-20T02:01:28.952Z,20.06
2022-08-20T02:01:49.397Z,20.10
2022-08-20T02:02:09.962Z,20.08
2022-08-20T02:02:30.542Z,20.08
2022-08-20T02:02:51.128Z,20.11
2022-08-20T02:03:11.526Z,20.10
2022-08-20T02:03:36.926Z,20.08
2022-08-20T02:03:52.511Z,20.08
2022-08-20T02:04:15.533Z,20.08
2022-08-20T02:04:36.177Z,20.05
2022-08-20T02:04:56.761Z,20.08
2022-08-20T02:05:17.347Z,20.08
2022-08-20T02:05:37.928Z,20.10
2022-08-20T02:05:58.510Z,20.06
2022-08-20T02:06:18.904Z,20.03
2022-08-20T02:06:39.487Z,20.08
2022-08-20T02:06:59.892Z,20.06
2022-08-20T02:07:20.486Z,20.05
2022-08-20T02:07:41.072Z,20.06
2022-08-20T02:08:01.654Z,20.06
2022-08-20T02:08:22.239Z,20.06
2022-08-20T02:08:42.819Z,20.08
2022-08-20T02:09:03.402Z,20.10
2022-08-20T02:09:23.986Z,20.06
2022-08-20T02:09:44.570Z,20.10
2022-08-20T02:10:05.153Z,20.06
2022-08-20T02:10:25.735Z,20.03
2022-08-20T02:10:46.132Z,20.03
2022-08-20T02:11:06.713Z,20.05
2022-08-20T02:11:27.301Z,20.02
2022-08-20T02:11:47.881Z,20.02
2022-08-20T02:12:08.478Z,20.02
2022-08-20T02:12:29.057Z,20.01
2022-08-20T02:12:49.641Z,20.02
2022-08-20T02:13:17.125Z,20.03
2022-08-20T02:13:32.615Z,20.03
2022-08-20T02:13:53.197Z,20.03
2022-08-20T02:14:13.776Z,20.02
2022-08-20T02:14:34.172Z,20.05
2022-08-20T02:14:54.756Z,20.03
2022-08-20T02:15:15.343Z,20.02
2022-08-20T02:15:42.885Z,20.03
2022-08-20T02:15:57.771Z,20.05
2022-08-20T02:16:18.528Z,20.05
2022-08-20T02:16:39.113Z,20.05
2022-08-20T02:16:59.697Z,20.06
2022-08-20T02:17:20.293Z,20.03
2022-08-20T02:17:40.877Z,20.05
2022-08-20T02:18:01.459Z,20.06
2022-08-20T02:18:22.042Z,20.06
2022-08-20T02:18:42.624Z,20.08
2022-08-20T02:19:03.206Z,20.10
2022-08-20T02:19:23.786Z,20.08
2022-08-20T02:19:44.370Z,20.10
2022-08-20T02:20:04.759Z,20.10
2022-08-20T02:20:25.155Z,20.08
2022-08-20T02:20:45.738Z,20.06
2022-08-20T02:21:06.326Z,20.06
2022-08-20T02:21:26.906Z,20.06
2022-08-20T02:21:47.496Z,20.06
2022-08-20T02:22:08.078Z,20.06
2022-08-20T02:22:28.675Z,20.03
2022-08-20T02:22:50.601Z,20.03
2022-08-20T02:23:10.712Z,20.02
2022-08-20T02:23:31.292Z,19.99
2022-08-20T02:23:51.873Z,19.96
2022-08-20T02:24:12.459Z,19.92
2022-08-20T02:24:32.855Z,19.94
2022-08-20T02:24:53.440Z,19.92
2022-08-20T02:25:14.026Z,19.92
2022-08-20T02:25:34.604Z,19.88
2022-08-20T02:25:55.187Z,19.88
2022-08-20T02:26:15.768Z,19.91
2022-08-20T02:26:36.351Z,19.87
2022-08-20T02:26:56.932Z,19.88
2022-08-20T02:27:17.517Z,19.87
2022-08-20T02:27:38.115Z,19.87
2022-08-20T02:27:58.705Z,19.88
2022-08-20T02:28:19.285Z,19.84
2022-08-20T02:28:39.872Z,19.83
2022-08-20T02:29:01.302Z,19.84
2022-08-20T02:29:20.850Z,19.86
2022-08-20T02:29:41.435Z,19.87
2022-08-20T02:30:02.012Z,19.84
2022-08-20T02:30:27.825Z,19.86
2022-08-20T02:30:42.999Z,19.83
2022-08-20T02:31:03.583Z,19.83
2022-08-20T02:31:24.166Z,19.83
2022-08-20T02:32:24.574Z,19.83
2022-08-20T02:32:24.773Z,19.81
2022-08-20T02:32:33.784Z,19.80
2022-08-20T02:32:45.976Z,19.83
2022-08-20T02:33:06.560Z,19.81
2022-08-20T02:33:27.689Z,19.80
2022-08-20T02:34:21.750Z,19.78
2022-08-20T02:34:22.124Z,19.81
2022-08-20T02:34:28.894Z,19.77
2022-08-20T02:34:49.478Z,19.76
2022-08-20T02:35:10.064Z,19.76
2022-08-20T02:35:30.646Z,19.74
2022-08-20T02:35:51.644Z,19.74
2022-08-20T02:36:12.032Z,19.77
2022-08-20T02:36:32.610Z,19.73
2022-08-20T02:36:53.194Z,19.74
2022-08-20T02:37:13.782Z,19.71
2022-08-20T02:37:34.380Z,19.74
2022-08-20T02:37:55.299Z,19.71
2022-08-20T02:38:15.950Z,19.71
2022-08-20T02:38:36.537Z,19.71
2022-08-20T02:38:56.931Z,19.69
2022-08-20T02:39:17.513Z,19.73
2022-08-20T02:39:38.164Z,19.71
2022-08-20T02:39:58.787Z,19.69
2022-08-20T02:40:27.301Z,19.71
2022-08-20T02:40:39.767Z,19.71
2022-08-20T02:41:00.342Z,19.69
2022-08-20T02:41:20.928Z,19.71
2022-08-20T02:41:41.511Z,19.73
2022-08-20T02:42:02.109Z,19.68
2022-08-20T02:42:22.694Z,19.68
2022-08-20T02:42:43.291Z,19.69
2022-08-20T02:43:05.012Z,19.68
2022-08-20T02:43:25.396Z,19.71
2022-08-20T02:43:45.978Z,19.69
2022-08-20T02:44:06.564Z,19.71
2022-08-20T02:44:27.147Z,19.69
2022-08-20T02:44:47.737Z,19.69
2022-08-20T02:45:08.316Z,19.69
2022-08-20T02:45:28.723Z,19.66
2022-08-20T02:45:49.307Z,19.68
2022-08-20T02:46:09.893Z,19.73
2022-08-20T02:46:30.471Z,19.73
2022-08-20T02:46:51.656Z,19.69
2022-08-20T02:47:12.241Z,19.71
2022-08-20T02:47:32.829Z,19.69
2022-08-20T02:47:53.430Z,19.69
2022-08-20T02:48:14.011Z,19.73
2022-08-20T02:48:34.593Z,19.71
2022-08-20T02:48:55.176Z,19.73
2022-08-20T02:49:15.757Z,19.73
2022-08-20T02:49:36.157Z,19.73
2022-08-20T02:49:56.554Z,19.73
2022-08-20T02:50:17.133Z,19.68
2022-08-20T02:50:37.716Z,19.69
2022-08-20T02:50:58.302Z,19.69
2022-08-20T02:51:18.883Z,19.74
2022-08-20T02:51:39.286Z,19.73
2022-08-20T02:51:59.864Z,19.76
2022-08-20T02:52:20.445Z,19.74
2022-08-20T02:52:41.028Z,19.74
2022-08-20T02:53:01.444Z,19.74
2022-08-20T02:53:22.029Z,19.73
2022-08-20T02:53:42.608Z,19.74
2022-08-20T02:54:03.198Z,19.76
2022-08-20T02:54:23.774Z,19.74
2022-08-20T02:54:44.347Z,19.76
2022-08-20T02:55:04.932Z,19.76
2022-08-20T02:55:27.186Z,19.77
2022-08-20T02:55:45.913Z,19.76
2022-08-20T02:56:06.493Z,19.77
2022-08-20T02:56:27.076Z,19.74
2022-08-20T02:56:47.658Z,19.73
2022-08-20T02:57:08.243Z,19.68
2022-08-20T02:57:28.638Z,19.74
2022-08-20T02:57:49.299Z,19.73
2022-08-20T02:58:14.065Z,19.69
2022-08-20T02:58:34.656Z,19.73
2022-08-20T02:58:55.233Z,19.74
2022-08-20T02:59:19.717Z,19.69
2022-08-20T02:59:40.679Z,19.73
2022-08-20T03:00:01.327Z,19.73
2022-08-20T03:00:21.885Z,19.74
2022-08-20T03:00:42.468Z,19.74
2022-08-20T03:01:03.152Z,19.76
2022-08-20T03:01:23.792Z,19.73
2022-08-20T03:01:44.367Z,19.73
2022-08-20T03:02:04.949Z,19.73
2022-08-20T03:02:25.532Z,19.69
2022-08-20T03:02:46.117Z,19.73
2022-08-20T03:03:06.714Z,19.71
2022-08-20T03:03:27.299Z,19.69
2022-08-20T03:03:47.881Z,19.74
2022-08-20T03:04:08.277Z,19.74
2022-08-20T03:04:28.864Z,19.74
2022-08-20T03:04:49.444Z,19.71
2022-08-20T03:05:10.040Z,19.71
2022-08-20T03:05:30.622Z,19.73
2022-08-20T03:05:51.208Z,19.71
2022-08-20T03:06:11.787Z,19.74
2022-08-20T03:06:32.182Z,19.73
2022-08-20T03:06:52.763Z,19.74
2022-08-20T03:07:13.348Z,19.76
2022-08-20T03:07:33.934Z,19.78
2022-08-20T03:07:54.596Z,19.78
2022-08-20T03:08:15.201Z,19.77
2022-08-20T03:08:35.783Z,19.76
2022-08-20T03:08:56.367Z,19.80
2022-08-20T03:09:16.950Z,19.77
2022-08-20T03:09:37.529Z,19.77
2022-08-20T03:09:58.113Z,19.78
2022-08-20T03:10:18.697Z,19.78
2022-08-20T03:10:39.272Z,19.78
2022-08-20T03:10:59.856Z,19.77
2022-08-20T03:11:20.438Z,19.78
2022-08-20T03:11:41.022Z,19.80
2022-08-20T03:12:01.604Z,19.77
2022-08-20T03:12:22.191Z,19.77
2022-08-20T03:12:42.772Z,19.74
2022-08-20T03:13:03.494Z,19.77
2022-08-20T03:13:24.056Z,19.77
2022-08-20T03:13:44.638Z,19.78
2022-08-20T03:14:05.218Z,19.78
2022-08-20T03:14:25.802Z,19.76
2022-08-20T03:14:46.388Z,19.77
2022-08-20T03:15:06.978Z,19.76
2022-08-20T03:15:27.378Z,19.76
2022-08-20T03:15:47.963Z,19.78
2022-08-20T03:16:08.548Z,19.74
2022-08-20T03:16:29.130Z,19.73
2022-08-20T03:16:49.712Z,19.73
2022-08-20T03:17:10.110Z,19.71
2022-08-20T03:17:30.693Z,19.69
2022-08-20T03:17:51.290Z,19.66
2022-08-20T03:18:11.853Z,19.63
2022-08-20T03:18:32.268Z,19.65
2022-08-20T03:18:52.855Z,19.66
2022-08-20T03:19:13.443Z,19.65
2022-08-20T03:19:34.023Z,19.63
2022-08-20T03:19:54.613Z,19.62
2022-08-20T03:20:15.190Z,19.62
2022-08-20T03:20:35.776Z,19.63
2022-08-20T03:20:56.357Z,19.61
2022-08-20T03:21:17.829Z,19.59
2022-08-20T03:21:38.413Z,19.61
2022-08-20T03:21:58.992Z,19.59
2022-08-20T03:22:19.576Z,19.58
2022-08-20T03:22:40.158Z,19.58
2022-08-20T03:23:00.743Z,19.58
2022-08-20T03:23:21.153Z,19.58
2022-08-20T03:23:41.736Z,19.54
2022-08-20T03:24:02.312Z,19.56
2022-08-20T03:24:22.713Z,19.54
2022-08-20T03:24:43.295Z,19.54
2022-08-20T03:25:03.876Z,19.54
2022-08-20T03:25:24.452Z,19.54
2022-08-20T03:25:45.032Z,19.51
2022-08-20T03:26:05.617Z,19.48
2022-08-20T03:26:26.202Z,19.50
2022-08-20T03:26:46.592Z,19.47
2022-08-20T03:27:06.988Z,19.47
2022-08-20T03:27:32.660Z,19.46
2022-08-20T03:27:49.883Z,19.44
2022-08-20T03:28:08.192Z,19.47
2022-08-20T03:28:28.788Z,19.47
2022-08-20T03:28:49.411Z,19.46
2022-08-20T03:29:09.964Z,19.46
2022-08-20T03:29:30.548Z,19.46
2022-08-20T03:29:51.126Z,19.46
2022-08-20T03:30:11.712Z,19.47
2022-08-20T03:30:32.292Z,19.47
2022-08-20T03:30:52.874Z,19.47
2022-08-20T03:31:14.902Z,19.48
2022-08-20T03:31:33.851Z,19.47
2022-08-20T03:31:54.440Z,19.48
2022-08-20T03:32:15.022Z,19.48
2022-08-20T03:32:35.609Z,19.50
2022-08-20T03:32:56.191Z,19.48
2022-08-20T03:33:16.777Z,19.47
2022-08-20T03:33:37.367Z,19.50
2022-08-20T03:33:57.764Z,19.50
2022-08-20T03:34:18.345Z,19.50
2022-08-20T03:34:38.927Z,19.51
2022-08-20T03:34:59.507Z,19.51
2022-08-20T03:35:20.092Z,19.51
2022-08-20T03:35:40.674Z,19.50
2022-08-20T03:36:01.261Z,19.54
2022-08-20T03:36:22.229Z,19.50
2022-08-20T03:36:42.266Z,19.51
2022-08-20T03:37:02.858Z,19.55
2022-08-20T03:37:23.436Z,19.51
2022-08-20T03:37:48.279Z,19.51
2022-08-20T03:38:04.035Z,19.54
2022-08-20T03:38:33.189Z,19.54
2022-08-20T03:38:46.543Z,19.51
2022-08-20T03:39:07.123Z,19.55
2022-08-20T03:39:27.707Z,19.50
2022-08-20T03:39:48.358Z,19.51
2022-08-20T03:40:08.978Z,19.50
2022-08-20T03:40:29.530Z,19.51
2022-08-20T03:40:50.115Z,19.50
2022-08-20T03:41:10.693Z,19.48
2022-08-20T03:41:33.487Z,19.47
2022-08-20T03:41:54.070Z,19.47
2022-08-20T03:42:14.654Z,19.46
2022-08-20T03:42:35.236Z,19.44
2022-08-20T03:42:55.821Z,19.47
2022-08-20T03:43:16.403Z,19.41
2022-08-20T03:43:37.001Z,19.43
2022-08-20T03:43:58.520Z,19.41
2022-08-20T03:44:18.916Z,19.43
2022-08-20T03:44:39.502Z,19.43
2022-08-20T03:45:00.091Z,19.43
2022-08-20T03:45:20.734Z,19.43
2022-08-20T03:45:41.273Z,19.43
2022-08-20T03:46:01.852Z,19.44
2022-08-20T03:46:23.763Z,19.43
2022-08-20T03:46:44.528Z,19.44
2022-08-20T03:47:04.920Z,19.40
2022-08-20T03:47:25.503Z,19.41
2022-08-20T03:47:46.082Z,19.44
2022-08-20T03:48:06.669Z,19.44
2022-08-20T03:48:27.248Z,19.43
2022-08-20T03:48:47.856Z,19.46
2022-08-20T03:49:10.522Z,19.41
2022-08-20T03:49:31.102Z,19.41
2022-08-20T03:49:51.687Z,19.40
2022-08-20T03:50:14.870Z,19.43
2022-08-20T03:50:32.666Z,19.40
2022-08-20T03:50:53.252Z,19.40
2022-08-20T03:51:13.833Z,19.40
2022-08-20T03:51:56.139Z,19.40
2022-08-20T03:51:57.686Z,19.40
2022-08-20T03:52:18.946Z,19.39
2022-08-20T03:52:39.529Z,19.40
2022-08-20T03:53:00.107Z,19.40
2022-08-20T03:53:20.688Z,19.39
2022-08-20T03:53:41.274Z,19.37
2022-08-20T03:54:01.869Z,19.41
2022-08-20T03:54:22.491Z,19.40
2022-08-20T03:54:43.067Z,19.37
2022-08-20T03:55:03.664Z,19.41
2022-08-20T03:55:24.247Z,19.39
2022-08-20T03:55:45.353Z,19.39
2022-08-20T03:56:05.234Z,19.40
2022-08-20T03:56:25.819Z,19.40
2022-08-20T03:56:46.209Z,19.41
2022-08-20T03:57:12.790Z,19.41
2022-08-20T03:57:27.200Z,19.39
2022-08-20T03:57:47.779Z,19.40
2022-08-20T03:58:08.361Z,19.39
2022-08-20T03:58:34.887Z,19.40
2022-08-20T03:58:49.344Z,19.43
2022-08-20T03:59:09.934Z,19.43
2022-08-20T03:59:30.519Z,19.44
2022-08-20T03:59:54.739Z,19.44
2022-08-20T04:00:11.505Z,19.46
2022-08-20T04:00:32.089Z,19.46
2022-08-20T04:00:52.913Z,19.46
2022-08-20T04:01:45.481Z,19.44
2022-08-20T04:01:46.211Z,19.43
2022-08-20T04:01:54.370Z,19.44
2022-08-20T04:02:14.975Z,19.44
2022-08-20T04:02:35.566Z,19.46
2022-08-20T04:02:56.147Z,19.47
2022-08-20T04:03:17.028Z,19.47
2022-08-20T04:03:37.616Z,19.47
2022-08-20T04:03:58.195Z,19.50
2022-08-20T04:04:18.793Z,19.46
2022-08-20T04:04:39.370Z,19.50
2022-08-20T04:04:59.952Z,19.48
2022-08-20T04:05:20.533Z,19.48
2022-08-20T04:05:41.118Z,19.47
2022-08-20T04:06:01.704Z,19.47
2022-08-20T04:06:22.282Z,19.47
2022-08-20T04:06:42.865Z,19.48
2022-08-20T04:07:03.450Z,19.48
2022-08-20T04:07:24.033Z,19.44
2022-08-20T04:07:44.619Z,19.50
2022-08-20T04:08:05.202Z,19.47
2022-08-20T04:08:25.786Z,19.48
2022-08-20T04:08:46.381Z,19.51
2022-08-20T04:09:06.965Z,19.48
2022-08-20T04:09:27.372Z,19.51
2022-08-20T04:09:47.949Z,19.48
2022-08-20T04:10:08.522Z,19.55
2022-08-20T04:10:29.110Z,19.51
2022-08-20T04:10:49.692Z,19.50
2022-08-20T04:11:10.272Z,19.51
2022-08-20T04:11:30.857Z,19.54
2022-08-20T04:11:52.840Z,19.54
2022-08-20T04:12:13.421Z,19.51
2022-08-20T04:12:34.007Z,19.51
2022-08-20T04:12:56.954Z,19.54
2022-08-20T04:13:18.096Z,19.50
2022-08-20T04:13:41.860Z,19.51
2022-08-20T04:13:58.896Z,19.51
2022-08-20T04:14:20.667Z,19.51
2022-08-20T04:14:41.267Z,19.50
2022-08-20T04:15:02.107Z,19.50
2022-08-20T04:15:22.749Z,19.51
2022-08-20T04:15:43.520Z,19.54
2022-08-20T04:16:04.102Z,19.54
2022-08-20T04:16:24.681Z,19.51
2022-08-20T04:16:45.355Z,19.54
2022-08-20T04:17:08.102Z,19.54
2022-08-20T04:17:28.681Z,19.50
2022-08-20T04:17:49.332Z,19.50
2022-08-20T04:18:09.898Z,19.50
2022-08-20T04:18:30.477Z,19.51
2022-08-20T04:18:58.587Z,19.48
2022-08-20T04:19:11.485Z,19.47
2022-08-20T04:19:34.295Z,19.47
2022-08-20T04:19:54.946Z,19.46
2022-08-20T04:20:15.525Z,19.46
2022-08-20T04:20:36.108Z,19.47
2022-08-20T04:20:56.503Z,19.50
2022-08-20T04:21:17.087Z,19.47
2022-08-20T04:21:37.673Z,19.48
2022-08-20T04:21:58.253Z,19.48
2022-08-20T04:22:18.837Z,19.47
2022-08-20T04:22:39.419Z,19.46
2022-08-20T04:22:59.998Z,19.47
2022-08-20T04:23:20.586Z,19.48
2022-08-20T04:23:41.165Z,19.47
2022-08-20T04:24:01.748Z,19.47
2022-08-20T04:24:31.146Z,19.50
2022-08-20T04:24:42.746Z,19.51
2022-08-20T04:25:03.326Z,19.54
2022-08-20T04:25:28.105Z,19.51
2022-08-20T04:25:48.503Z,19.51
2022-08-20T04:26:09.105Z,19.51
2022-08-20T04:26:29.691Z,19.54
2022-08-20T04:26:50.087Z,19.48
2022-08-20T04:27:10.671Z,19.48
2022-08-20T04:27:31.264Z,19.48
2022-08-20T04:27:51.985Z,19.50
2022-08-20T04:28:14.143Z,19.50
2022-08-20T04:28:32.632Z,19.51
2022-08-20T04:28:53.226Z,19.51
2022-08-20T04:29:13.818Z,19.55
2022-08-20T04:29:35.583Z,19.55
2022-08-20T04:29:56.244Z,19.58
2022-08-20T04:30:16.826Z,19.58
2022-08-20T04:30:37.405Z,19.58
2022-08-20T04:30:57.989Z,19.58
2022-08-20T04:31:21.004Z,19.56
2022-08-20T04:31:38.978Z,19.54
2022-08-20T04:31:59.561Z,19.54
2022-08-20T04:32:20.147Z,19.51
2022-08-20T04:32:40.729Z,19.51
2022-08-20T04:33:01.317Z,19.54
2022-08-20T04:33:22.723Z,19.54
2022-08-20T04:33:42.298Z,19.51
2022-08-20T04:34:02.881Z,19.48
2022-08-20T04:34:23.475Z,19.51
2022-08-20T04:34:44.059Z,19.54
2022-08-20T04:35:07.891Z,19.54
2022-08-20T04:35:28.476Z,19.54
2022-08-20T04:35:49.056Z,19.51
2022-08-20T04:36:09.641Z,19.50
2022-08-20T04:36:30.221Z,19.54
2022-08-20T04:36:50.808Z,19.55
2022-08-20T04:37:16.782Z,19.55
2022-08-20T04:37:31.798Z,19.58
2022-08-20T04:37:52.380Z,19.56
2022-08-20T04:38:12.963Z,19.58
2022-08-20T04:38:49.948Z,19.56
2022-08-20T04:38:53.758Z,19.55
2022-08-20T04:39:14.346Z,19.55
2022-08-20T04:39:35.008Z,19.54
2022-08-20T04:39:55.619Z,19.59
2022-08-20T04:40:19.368Z,19.58
2022-08-20T04:40:39.953Z,19.56
2022-08-20T04:41:00.535Z,19.55
2022-08-20T04:41:23.177Z,19.56
2022-08-20T04:41:41.514Z,19.56
2022-08-20T04:42:01.931Z,19.56
2022-08-20T04:42:22.492Z,19.59
2022-08-20T04:42:43.547Z,19.58
2022-08-20T04:43:04.150Z,19.58
2022-08-20T04:43:24.734Z,19.56
2022-08-20T04:43:45.127Z,19.55
2022-08-20T04:44:05.712Z,19.56
2022-08-20T04:44:26.289Z,19.56
2022-08-20T04:44:46.895Z,19.58
2022-08-20T04:45:07.477Z,19.56
2022-08-20T04:45:28.060Z,19.55
2022-08-20T04:45:48.642Z,19.55
2022-08-20T04:46:09.229Z,19.54
2022-08-20T04:46:29.816Z,19.56
2022-08-20T04:46:50.401Z,19.54
2022-08-20T04:47:10.980Z,19.55
2022-08-20T04:47:34.490Z,19.56
2022-08-20T04:47:55.664Z,19.54
2022-08-20T04:48:16.288Z,19.56
2022-08-20T04:48:36.872Z,19.54
2022-08-20T04:48:57.459Z,19.55
2022-08-20T04:49:18.025Z,19.56
2022-08-20T04:49:38.613Z,19.55
2022-08-20T04:49:59.210Z,19.54
2022-08-20T04:50:20.535Z,19.54
2022-08-20T04:50:41.113Z,19.56
2022-08-20T04:51:01.700Z,19.55
2022-08-20T04:51:24.787Z,19.54
2022-08-20T04:51:45.371Z,19.56
2022-08-20T04:52:05.953Z,19.58
2022-08-20T04:52:26.539Z,19.54
2022-08-20T04:52:47.118Z,19.51
2022-08-20T04:53:07.700Z,19.48
2022-08-20T04:53:28.282Z,19.51
2022-08-20T04:53:52.208Z,19.54
2022-08-20T04:54:13.930Z,19.50
2022-08-20T04:54:34.522Z,19.48
2022-08-20T04:54:55.120Z,19.47
2022-08-20T04:55:15.707Z,19.48
2022-08-20T04:55:36.287Z,19.47
2022-08-20T04:55:56.689Z,19.48
2022-08-20T04:56:17.267Z,19.47
2022-08-20T04:56:37.661Z,19.46
2022-08-20T04:56:58.247Z,19.46
2022-08-20T04:57:18.834Z,19.48
2022-08-20T04:57:39.227Z,19.50
2022-08-20T04:57:59.876Z,19.48
2022-08-20T04:58:20.426Z,19.50
2022-08-20T04:58:42.957Z,19.54
2022-08-20T04:59:03.548Z,19.50
2022-08-20T04:59:24.124Z,19.54
2022-08-20T04:59:44.715Z,19.54
2022-08-20T05:00:05.298Z,19.50
2022-08-20T05:00:25.880Z,19.47
2022-08-20T05:00:46.567Z,19.50
2022-08-20T05:01:07.198Z,19.50
2022-08-20T05:01:27.857Z,19.50
2022-08-20T05:01:48.423Z,19.50
2022-08-20T05:02:09.010Z,19.51
2022-08-20T05:02:29.593Z,19.50
2022-08-20T05:02:50.190Z,19.54
2022-08-20T05:03:10.779Z,19.54
2022-08-20T05:03:31.353Z,19.55
2022-08-20T05:03:51.936Z,19.54
2022-08-20T05:04:12.519Z,19.55
2022-08-20T05:04:33.106Z,19.54
2022-08-20T05:04:53.710Z,19.54
2022-08-20T05:05:14.291Z,19.51
2022-08-20T05:05:34.873Z,19.51
2022-08-20T05:05:55.457Z,19.54
2022-08-20T05:06:16.050Z,19.51
2022-08-20T05:06:36.628Z,19.50
2022-08-20T05:06:57.207Z,19.51
2022-08-20T05:07:17.792Z,19.50
2022-08-20T05:07:38.373Z,19.48
2022-08-20T05:07:58.770Z,19.50
2022-08-20T05:08:20.312Z,19.51
2022-08-20T05:08:40.947Z,19.50
2022-08-20T05:09:01.534Z,19.47
2022-08-20T05:09:22.109Z,19.50
2022-08-20T05:09:44.104Z,19.47
2022-08-20T05:10:04.869Z,19.50
2022-08-20T05:10:25.443Z,19.50
2022-08-20T05:10:46.023Z,19.50
2022-08-20T05:11:33.669Z,19.48
2022-08-20T05:11:35.012Z,19.50
2022-08-20T05:11:47.412Z,19.47
2022-08-20T05:12:07.995Z,19.46
2022-08-20T05:12:28.582Z,19.46
2022-08-20T05:12:56.619Z,19.43
2022-08-20T05:13:09.562Z,19.47
2022-08-20T05:13:30.147Z,19.46
2022-08-20T05:13:50.737Z,19.47
2022-08-20T05:14:11.325Z,19.47
2022-08-20T05:14:31.710Z,19.46
2022-08-20T05:14:52.307Z,19.44
2022-08-20T05:15:12.889Z,19.47
2022-08-20T05:15:33.472Z,19.44
2022-08-20T05:15:53.866Z,19.44
2022-08-20T05:16:14.446Z,19.44
2022-08-20T05:16:35.034Z,19.46
2022-08-20T05:16:55.616Z,19.44
2022-08-20T05:17:16.198Z,19.44
2022-08-20T05:17:36.593Z,19.44
2022-08-20T05:17:57.482Z,19.41
2022-08-20T05:18:18.142Z,19.44
2022-08-20T05:18:38.721Z,19.46
2022-08-20T05:18:59.302Z,19.41
2022-08-20T05:19:19.882Z,19.47
2022-08-20T05:19:40.466Z,19.46
2022-08-20T05:20:01.067Z,19.47
2022-08-20T05:20:21.654Z,19.47
2022-08-20T05:20:42.235Z,19.48
2022-08-20T05:21:02.818Z,19.47
2022-08-20T05:21:23.404Z,19.51
2022-08-20T05:21:43.985Z,19.48
2022-08-20T05:22:04.571Z,19.50
2022-08-20T05:22:25.149Z,19.48
2022-08-20T05:22:45.544Z,19.48
2022-08-20T05:23:05.941Z,19.47
2022-08-20T05:23:26.525Z,19.50
2022-08-20T05:23:47.109Z,19.51
2022-08-20T05:24:07.691Z,19.48
2022-08-20T05:24:28.272Z,19.48
2022-08-20T05:24:48.853Z,19.50
2022-08-20T05:25:09.455Z,19.51
2022-08-20T05:25:30.036Z,19.51
2022-08-20T05:25:50.620Z,19.51
2022-08-20T05:26:11.206Z,19.51
2022-08-20T05:26:31.798Z,19.55
2022-08-20T05:26:52.388Z,19.54
2022-08-20T05:27:14.112Z,19.55
2022-08-20T05:27:33.377Z,19.56
2022-08-20T05:27:53.995Z,19.55
2022-08-20T05:28:14.540Z,19.51
2022-08-20T05:28:38.696Z,19.54
2022-08-20T05:28:58.495Z,19.51
2022-08-20T05:29:19.885Z,19.51
2022-08-20T05:29:40.467Z,19.55
2022-08-20T05:30:01.068Z,19.54
2022-08-20T05:30:23.522Z,19.54
2022-08-20T05:30:45.053Z,19.56
2022-08-20T05:31:08.225Z,19.54
2022-08-20T05:31:32.988Z,19.55
2022-08-20T05:31:49.206Z,19.54
2022-08-20T05:32:09.788Z,19.51
2022-08-20T05:32:30.370Z,19.55
2022-08-20T05:32:50.953Z,19.54
2022-08-20T05:33:11.538Z,19.50
2022-08-20T05:33:32.125Z,19.50
2022-08-20T05:33:52.708Z,19.55
2022-08-20T05:34:13.619Z,19.56
2022-08-20T05:34:34.198Z,19.51
2022-08-20T05:34:54.779Z,19.55
2022-08-20T05:35:15.379Z,19.51
2022-08-20T05:35:35.962Z,19.54
2022-08-20T05:35:56.543Z,19.50
2022-08-20T05:36:17.126Z,19.50
2022-08-20T05:36:38.067Z,19.50
2022-08-20T05:36:58.649Z,19.47
2022-08-20T05:37:19.231Z,19.47
2022-08-20T05:37:39.880Z,19.47
2022-08-20T05:38:00.464Z,19.48
2022-08-20T05:38:21.045Z,19.46
2022-08-20T05:38:41.632Z,19.47
2022-08-20T05:39:02.039Z,19.47
2022-08-20T05:39:22.621Z,19.46
2022-08-20T05:39:43.274Z,19.44
2022-08-20T05:40:03.974Z,19.46
2022-08-20T05:40:24.651Z,19.44
2022-08-20T05:40:45.203Z,19.43
2022-08-20T05:41:05.785Z,19.43
2022-08-20T05:41:28.967Z,19.47
2022-08-20T05:41:46.763Z,19.47
2022-08-20T05:42:07.355Z,19.44
2022-08-20T05:42:27.930Z,19.46
2022-08-20T05:42:48.515Z,19.44
2022-08-20T05:43:09.107Z,19.44
2022-08-20T05:43:29.685Z,19.43
2022-08-20T05:43:51.482Z,19.43
2022-08-20T05:44:12.191Z,19.43
2022-08-20T05:44:32.774Z,19.46
2022-08-20T05:44:53.363Z,19.47
2022-08-20T05:45:13.977Z,19.46
2022-08-20T05:45:34.567Z,19.47
2022-08-20T05:45:56.762Z,19.48
2022-08-20T05:46:17.415Z,19.47
2022-08-20T05:46:37.998Z,19.48
2022-08-20T05:46:58.580Z,19.47
2022-08-20T05:47:19.385Z,19.44
2022-08-20T05:47:42.955Z,19.43
2022-08-20T05:48:03.634Z,19.41
2022-08-20T05:48:24.224Z,19.41
2022-08-20T05:48:44.804Z,19.43
2022-08-20T05:49:05.387Z,19.41
2022-08-20T05:49:25.966Z,19.43
2022-08-20T05:49:46.561Z,19.41
2022-08-20T05:50:07.144Z,19.40
2022-08-20T05:50:27.737Z,19.43
2022-08-20T05:50:48.321Z,19.41
2022-08-20T05:51:12.065Z,19.40
2022-08-20T05:51:29.329Z,19.39
2022-08-20T05:51:49.899Z,19.37
2022-08-20T05:52:10.478Z,19.39
2022-08-20T05:52:30.875Z,19.40
2022-08-20T05:52:51.455Z,19.39
2022-08-20T05:53:12.035Z,19.40
2022-08-20T05:53:32.618Z,19.40
2022-08-20T05:53:53.207Z,19.40
2022-08-20T05:54:13.792Z,19.37
2022-08-20T05:54:34.373Z,19.41
2022-08-20T05:54:54.958Z,19.39
2022-08-20T05:55:15.540Z,19.41
2022-08-20T05:55:36.140Z,19.41
2022-08-20T05:55:56.716Z,19.43
2022-08-20T05:56:17.294Z,19.43
2022-08-20T05:56:37.880Z,19.44
2022-08-20T05:56:58.457Z,19.44
2022-08-20T05:57:19.039Z,19.44
2022-08-20T05:57:39.619Z,19.46
2022-08-20T05:58:00.200Z,19.44
2022-08-20T05:58:20.782Z,19.46
2022-08-20T05:58:41.364Z,19.47
2022-08-20T05:59:01.949Z,19.47
2022-08-20T05:59:24.246Z,19.47
2022-08-20T05:59:42.920Z,19.47
2022-08-20T06:00:03.502Z,19.47
2022-08-20T06:00:24.104Z,19.46
2022-08-20T06:00:44.687Z,19.50
2022-08-20T06:01:05.299Z,19.47
2022-08-20T06:01:25.741Z,19.48
2022-08-20T06:01:46.388Z,19.47
2022-08-20T06:02:07.005Z,19.48
2022-08-20T06:02:27.587Z,19.46
2022-08-20T06:02:48.168Z,19.47
2022-08-20T06:03:08.755Z,19.47
2022-08-20T06:03:29.334Z,19.47
2022-08-20T06:03:49.732Z,19.47
2022-08-20T06:04:10.317Z,19.46
2022-08-20T06:04:30.908Z,19.48
2022-08-20T06:04:56.248Z,19.48
2022-08-20T06:05:11.892Z,19.48
2022-08-20T06:05:32.486Z,19.48
2022-08-20T06:05:53.058Z,19.50
2022-08-20T06:06:17.984Z,19.50
2022-08-20T06:06:46.227Z,19.48
2022-08-20T06:06:54.451Z,19.50
2022-08-20T06:07:15.036Z,19.47
2022-08-20T06:07:35.618Z,19.51
2022-08-20T06:07:57.901Z,19.48
2022-08-20T06:08:16.616Z,19.47
2022-08-20T06:08:37.197Z,19.48
2022-08-20T06:08:57.784Z,19.51
2022-08-20T06:09:30.819Z,19.54
2022-08-20T06:09:40.577Z,19.51
2022-08-20T06:09:58.987Z,19.50
2022-08-20T06:10:19.573Z,19.48
2022-08-20T06:10:40.170Z,19.51
2022-08-20T06:11:03.875Z,19.50
2022-08-20T06:11:24.459Z,19.51
2022-08-20T06:11:45.043Z,19.50
2022-08-20T06:12:05.629Z,19.54
2022-08-20T06:12:26.215Z,19.55
2022-08-20T06:12:46.801Z,19.54
2022-08-20T06:13:07.386Z,19.55
2022-08-20T06:13:27.964Z,19.55
2022-08-20T06:13:48.359Z,19.51
2022-08-20T06:14:08.942Z,19.54
2022-08-20T06:14:29.537Z,19.51
2022-08-20T06:14:50.107Z,19.51
2022-08-20T06:15:10.690Z,19.50
2022-08-20T06:15:31.283Z,19.51
2022-08-20T06:15:51.890Z,19.51
2022-08-20T06:16:12.274Z,19.50
2022-08-20T06:16:33.242Z,19.51
2022-08-20T06:16:57.968Z,19.48
2022-08-20T06:17:14.230Z,19.51
2022-08-20T06:17:34.867Z,19.51
2022-08-20T06:17:58.476Z,19.50
2022-08-20T06:18:28.274Z,19.51
2022-08-20T06:18:35.779Z,19.51
2022-08-20T06:18:58.206Z,19.50
2022-08-20T06:19:24.985Z,19.55
2022-08-20T06:19:39.333Z,19.50
2022-08-20T06:19:59.591Z,19.54
2022-08-20T06:20:20.663Z,19.54
2022-08-20T06:20:41.248Z,19.51
2022-08-20T06:21:01.842Z,19.55
2022-08-20T06:21:22.425Z,19.55
2022-08-20T06:21:43.005Z,19.55
2022-08-20T06:22:08.610Z,19.54
2022-08-20T06:22:27.168Z,19.55
2022-08-20T06:22:47.993Z,19.54
2022-08-20T06:23:08.577Z,19.54
2022-08-20T06:23:54.277Z,19.55
2022-08-20T06:23:57.724Z,19.51
2022-08-20T06:24:09.971Z,19.54
2022-08-20T06:24:30.548Z,19.54
2022-08-20T06:24:51.140Z,19.54
2022-08-20T06:25:11.717Z,19.54
2022-08-20T06:25:37.391Z,19.50
2022-08-20T06:25:52.708Z,19.50
2022-08-20T06:26:13.307Z,19.50
2022-08-20T06:26:33.893Z,19.50
2022-08-20T06:26:54.479Z,19.50